Latest Weather Observations for Coolangatta

IDQ60901

Issued at 4:41 pm EST Sunday 11 April 2021 (issued every 10 minutes, with the page automatically refreshed every 10 minutes)

About weather observations | Map of Brisbane area stations | Latest observations for Brisbane area | Other Formats
Station Details ID: 040717 Name: COOLANGATTA Lat: -28.17 Lon: 153.51 Height: 4.0 m
Data from the previous 72 hours. | See also: Recent months at Coolangatta
Date/Time
EST
Temp
°C
App
Temp
°C
Dew
Point
°C
Rel
Hum
%
Delta-T
°C
Wind Press
QNH
hPa
Press
MSL
hPa
Rain since
9am
mm
Dir  Spd
km/h
Gust
km/h
Spd
kts
Gust
kts
11/04:30pm 25.3 23.9 14.4 50 6.5 NNE 15 19 8 10 1008.5 1008.4 0.0
11/04:00pm 25.7 24.5 13.9 48 7.0 NE 13 19 7 10 1008.3 1008.2 0.0
11/03:30pm 25.8 24.1 12.6 44 7.6 NNE 13 19 7 10 1007.9 1007.8 0.0
11/03:00pm 26.2 24.5 12.6 43 7.9 ENE 13 17 7 9 1008.1 1008.0 0.0
11/02:30pm 26.7 25.3 13.4 43 7.8 NE 13 19 7 10 1007.9 1007.8 0.0
11/02:00pm 26.7 25.0 12.4 41 8.3 NE 13 19 7 10 1007.8 1007.7 0.0
11/01:30pm 26.7 25.1 12.7 42 8.1 NNE 13 17 7 9 1007.8 1007.7 0.0
11/01:00pm 26.6 24.9 12.3 41 8.3 NNE 13 20 7 11 1008.1 1008.0 0.0
11/12:30pm 26.7 25.2 12.0 40 8.5 NNE 11 15 6 8 1008.4 1008.3 0.0
11/12:00pm 26.6 24.7 11.9 40 8.4 NNE 13 19 7 10 1009.0 1008.9 0.0
11/11:30am 25.9 24.3 11.6 40 8.1 SE 11 15 6 8 1009.4 1009.3 0.0
11/11:00am 26.4 25.7 13.2 44 7.7 SSE 9 13 5 7 1009.7 1009.6 0.0
11/10:30am 25.8 24.9 12.6 44 7.6 SW 9 17 5 9 1010.0 1009.9 0.0
11/10:00am 24.7 23.9 13.0 48 6.8 SSW 9 15 5 8 1010.1 1010.0 0.0
11/09:30am 23.4 22.9 13.8 54 5.6 S 9 13 5 7 1010.3 1010.2 0.0
11/09:00am 23.2 21.4 13.4 54 5.7 SSE 15 17 8 9 1010.2 1010.1 0.0
11/08:30am 23.0 20.8 13.2 54 5.7 S 17 20 9 11 1010.0 1009.9 0.0
11/08:00am 21.8 20.7 14.2 62 4.4 SSE 13 17 7 9 1009.8 1009.7 0.0
11/07:30am 22.2 22.2 15.1 64 4.2 SSE 9 13 5 7 1009.5 1009.4 0.0
11/07:00am 19.7 21.2 17.7 88 1.2 WSW 6 6 3 3 1009.2 1009.1 0.0
11/06:30am 18.9 20.2 17.0 89 1.1 WSW 6 9 3 5 1009.0 1008.9 0.0
11/06:00am 18.4 20.3 16.6 89 1.1 WSW 2 9 1 5 1008.7 1008.6 0.0
11/05:30am 18.7 20.9 16.5 87 1.3 CALM 0 0 0 0 1008.3 1008.2 0.0
11/05:00am 19.0 21.2 16.6 86 1.4 CALM 0 0 0 0 1008.0 1007.9 0.0
11/04:30am 18.6 19.9 16.2 86 1.4 WSW 4 7 2 4 1007.4 1007.3 0.0
11/04:00am 19.0 21.4 17.0 88 1.2 CALM 0 4 0 2 1007.1 1007.0 0.0
11/03:30am 19.2 20.8 17.0 87 1.3 WSW 4 7 2 4 1007.0 1006.9 0.0
11/03:00am 19.1 20.8 17.1 88 1.2 WSW 4 7 2 4 1006.9 1006.8 0.0
11/02:30am 19.5 21.0 17.5 88 1.2 WSW 6 7 3 4 1007.0 1006.9 0.0
11/02:00am 19.2 21.7 17.2 88 1.2 CALM 0 0 0 0 1007.3 1007.2 0.0
11/01:30am 19.6 22.2 17.4 87 1.3 CALM 0 0 0 0 1007.5 1007.4 0.0
11/01:00am 20.1 21.8 16.1 78 2.4 WSW 2 6 1 3 1007.7 1007.6 0.0
11/12:30am 20.1 22.3 16.5 80 2.2 CALM 0 0 0 0 1007.9 1007.8 0.0
11/12:00am 19.8 20.8 16.4 81 2.0 WSW 6 9 3 5 1007.7 1007.6 0.0
 
Date/Time
EST
Temp
°C
App
Temp
°C
Dew
Point
°C
Rel
Hum
%
Delta-T
°C
Wind Press
QNH
hPa
Press
MSL
hPa
Rain since
9am
mm
Dir  Spd
km/h
Gust
km/h
Spd
kts
Gust
kts
10/11:30pm 20.3 21.5 16.9 81 2.1 WSW 6 7 3 4 1007.9 1007.8 0.0
10/11:00pm 19.8 21.4 17.0 84 1.7 W 4 7 2 4 1007.7 1007.6 0.0
10/10:30pm 19.3 21.6 16.7 85 1.6 CALM 0 0 0 0 1007.8 1007.7 0.0
10/10:00pm 20.0 20.7 15.6 76 2.6 W 6 9 3 5 1008.0 1007.9 0.0
10/09:30pm 19.6 20.5 16.1 80 2.1 WSW 6 11 3 6 1007.8 1007.7 0.0
10/09:00pm 20.3 19.9 16.3 78 2.4 WSW 13 15 7 8 1007.7 1007.6 0.0
10/08:30pm 20.8 21.5 17.0 79 2.3 SSW 9 17 5 9 1007.5 1007.4 0.0
10/08:00pm 21.6 23.1 16.6 73 3.0 SW 4 7 2 4 1007.2 1007.1 0.0
10/07:30pm 21.7 22.6 17.5 77 2.6 SW 9 13 5 7 1007.0 1006.9 0.0
10/07:00pm 22.8 22.3 17.0 70 3.6 WSW 15 20 8 11 1006.7 1006.6 0.0
10/06:30pm 23.1 23.9 18.2 74 3.1 SW 11 13 6 7 1006.3 1006.2 0.0
10/06:00pm 24.2 25.6 17.9 68 4.0 SSW 7 9 4 5 1006.1 1006.0 0.0
10/05:30pm 26.2 27.5 17.6 59 5.4 SSE 7 11 4 6 1005.8 1005.7 0.0
10/05:00pm 28.3 28.6 15.9 47 7.7 SSE 9 13 5 7 1005.5 1005.4 0.0
10/04:30pm 30.1 29.1 14.6 39 9.4 SE 13 17 7 9 1004.9 1004.8 0.0
10/04:00pm 32.1 31.9 14.7 35 10.7 SSW 9 15 5 8 1004.4 1004.3 0.0
10/03:30pm 32.3 31.4 12.5 30 11.8 SW 9 19 5 10 1004.2 1004.1 0.0
10/03:00pm 32.4 31.5 13.6 32 11.4 SW 11 17 6 9 1004.2 1004.1 0.0
10/02:30pm 32.4 30.4 12.6 30 11.8 WSW 15 20 8 11 1004.3 1004.2 0.0
10/02:00pm 32.7 31.1 13.8 31 11.5 SW 15 26 8 14 1004.5 1004.4 0.0
10/01:30pm 32.6 30.3 11.7 28 12.3 S 15 22 8 12 1004.6 1004.5 0.0
10/01:00pm 31.9 32.0 15.4 37 10.2 SSW 9 15 5 8 1004.9 1004.8 0.0
10/12:30pm 32.1 29.3 11.3 28 12.1 WNW 17 22 9 12 1005.0 1004.9 0.0
10/12:00pm 32.1 30.7 13.3 31 11.3 W 13 20 7 11 1005.5 1005.4 0.0
10/11:30am 31.4 29.9 14.1 35 10.5 WNW 15 24 8 13 1006.0 1005.9 0.0
10/11:00am 28.1 29.3 20.6 63 5.0 NNE 15 20 8 11 1006.5 1006.4 0.0
10/10:30am 27.0 28.0 19.4 63 4.9 N 13 15 7 8 1007.0 1006.9 0.0
10/10:00am 26.6 27.1 17.4 57 5.8 NNE 11 15 6 8 1007.3 1007.2 0.0
10/09:30am 25.8 27.0 17.4 59 5.2 NNE 7 9 4 5 1007.5 1007.4 0.0
10/09:00am 25.5 27.5 17.9 63 4.8 N 4 9 2 5 1007.5 1007.4 0.0
10/08:30am 22.9 25.9 18.4 76 2.8 CALM 0 4 0 2 1007.5 1007.4 0.0
10/08:00am 21.0 22.6 16.8 77 2.6 WSW 4 7 2 4 1007.2 1007.1 0.0
10/07:30am 19.4 21.4 17.0 86 1.5 WSW 2 9 1 5 1007.0 1006.9 0.0
10/07:00am 18.1 19.1 16.4 90 1.0 WSW 6 9 3 5 1006.9 1006.8 0.0
10/06:30am 17.0 17.9 16.2 95 0.5 W 6 9 3 5 1006.6 1006.5 0.0
10/06:00am 16.5 18.1 15.9 96 0.4 W 2 7 1 4 1006.4 1006.3 0.0
10/05:30am 16.7 18.0 16.1 96 0.4 W 4 7 2 4 1006.5 1006.4 0.0
10/05:00am 17.0 18.1 16.5 97 0.3 W 6 9 3 5 1006.3 1006.2 0.0
10/04:58am 17.0 18.1 16.5 97 0.3 W 6 7 3 4 1006.3 1006.2 0.0
10/04:48am 17.2 18.3 16.7 97 0.3 W 6 7 3 4 1006.2 1006.1 0.0
10/04:30am 17.5 18.6 17.0 97 0.3 W 7 9 4 5 1006.1 1006.0 0.0
10/04:00am 17.4 18.4 16.9 97 0.3 W 7 9 4 5 1005.9 1005.8 0.0
10/03:30am 17.3 18.4 16.7 96 0.4 W 6 7 3 4 1005.9 1005.8 0.0
10/03:00am 17.9 19.1 17.4 97 0.3 W 7 9 4 5 1006.1 1006.0 0.0
10/02:30am 18.1 19.4 17.5 96 0.4 W 7 9 4 5 1006.1 1006.0 0.0
10/02:00am 18.4 19.8 17.8 96 0.4 WNW 7 9 4 5 1006.0 1005.9 0.0
10/01:30am 18.6 21.2 17.6 94 0.6 CALM 0 0 0 0 1006.2 1006.1 0.0
10/01:04am 19.1 20.8 18.1 94 0.6 WNW 6 7 3 4 1006.5 1006.4 0.0
10/01:00am 19.2 21.0 18.2 94 0.6 WNW 6 9 3 5 1006.5 1006.4 0.0
10/12:51am 19.3 21.1 18.3 94 0.6 WNW 6 9 3 5 1006.6 1006.5 0.0
10/12:37am 19.9 22.0 18.9 94 0.6 WNW 6 7 3 4 1006.8 1006.7 0.0
10/12:30am 20.0 21.9 19.0 94 0.6 NW 7 11 4 6 1007.0 1006.9 0.0
10/12:24am 20.1 21.7 19.1 94 0.6 NW 9 11 5 6 1007.0 1006.9 0.0
10/12:00am 20.1 22.0 18.9 93 0.8 NW 7 13 4 7 1006.9 1006.8 0.0
 
Date/Time
EST
Temp
°C
App
Temp
°C
Dew
Point
°C
Rel
Hum
%
Delta-T
°C
Wind Press
QNH
hPa
Press
MSL
hPa
Rain since
9am
mm
Dir  Spd
km/h
Gust
km/h
Spd
kts
Gust
kts
09/11:30pm 19.8 21.6 18.8 94 0.6 NW 7 11 4 6 1007.1 1007.0 0.0
09/11:00pm 19.5 21.8 18.5 94 0.6 W 4 6 2 3 1007.3 1007.2 0.0
09/10:30pm 19.6 21.6 18.8 95 0.5 W 6 7 3 4 1007.4 1007.3 0.0
09/10:00pm 19.5 20.9 18.7 95 0.5 W 9 11 5 6 1007.5 1007.4 0.0
09/09:30pm 19.6 20.9 18.4 93 0.7 WNW 9 9 5 5 1007.5 1007.4 0.0
09/09:00pm 20.3 21.5 19.0 92 0.8 WNW 11 13 6 7 1007.5 1007.4 0.0
09/08:30pm 20.4 21.7 19.2 93 0.8 WNW 11 15 6 8 1007.3 1007.2 0.0
09/08:00pm 20.2 21.7 18.9 92 0.8 W 9 9 5 5 1007.2 1007.1 0.0
09/07:30pm 20.8 22.6 19.5 92 0.8 W 9 11 5 6 1007.0 1006.9 0.0
09/07:00pm 21.3 23.6 19.8 91 1.0 N 7 9 4 5 1006.8 1006.7 0.0
09/06:30pm 21.8 24.1 19.4 86 1.5 N 6 7 3 4 1006.3 1006.2 0.0
09/06:00pm 22.2 24.0 18.8 81 2.1 N 7 11 4 6 1006.0 1005.9 0.0
09/05:30pm 23.9 25.4 19.0 74 3.1 N 9 11 5 6 1005.8 1005.7 0.0
09/05:14pm 24.2 25.6 18.6 71 3.5 N 9 13 5 7 1005.7 1005.6 0.0
09/05:00pm 24.6 26.1 18.8 70 3.7 N 9 13 5 7 1005.5 1005.4 0.0
09/04:57pm 24.6 25.9 18.5 69 3.9 N 9 13 5 7 1005.6 1005.5 0.0
09/04:30pm 24.8 25.7 18.3 67 4.1 NNE 11 13 6 7 1005.3 1005.2 0.0
09/04:00pm 25.1 26.0 18.3 66 4.3 NNE 11 15 6 8 1005.2 1005.1 0.0
09/03:30pm 25.1 25.1 17.3 62 4.9 NNE 13 17 7 9 1005.2 1005.1 0.0
09/03:00pm 25.1 25.1 17.3 62 4.9 NE 13 19 7 10 1005.1 1005.0 0.0
09/02:30pm 25.4 24.8 17.6 62 4.9 NNE 17 20 9 11 1005.2 1005.1 0.0
09/02:00pm 25.4 24.7 17.3 61 5.1 NNE 17 20 9 11 1005.3 1005.2 0.0
09/01:30pm 25.6 25.0 17.5 61 5.1 NNE 17 20 9 11 1005.6 1005.5 0.0
09/01:00pm 25.2 24.8 17.1 60 5.0 NE 15 20 8 11 1006.2 1006.1 0.0
09/12:30pm 24.9 23.3 16.6 60 5.1 NNE 20 26 11 14 1006.5 1006.4 0.0
09/12:00pm 25.2 24.5 18.2 65 4.4 N 19 22 10 12 1007.0 1006.9 0.0
09/11:30am 24.4 23.8 17.6 66 4.2 N 17 24 9 13 1007.6 1007.5 0.0
09/11:00am 24.6 24.1 17.8 66 4.3 N 17 20 9 11 1007.7 1007.6 0.0
09/10:30am 23.8 23.5 17.3 67 4.0 N 15 19 8 10 1008.2 1008.1 0.0
09/10:00am 24.6 24.0 16.6 61 4.9 N 15 20 8 11 1008.5 1008.4 0.0
09/09:30am 23.8 24.1 17.1 66 4.1 NNE 11 15 6 8 1008.5 1008.4 0.0
09/09:00am 23.1 23.5 16.4 66 4.1 NNE 9 13 5 7 1008.7 1008.6 0.6
09/08:30am 23.1 24.7 15.9 64 4.3 SSE 2 9 1 5 1008.9 1008.8 0.4
09/08:00am 21.9 23.3 15.5 67 3.8 SSW 2 7 1 4 1009.0 1008.9 0.4
09/07:30am 21.0 22.0 16.4 75 2.8 SW 6 9 3 5 1008.4 1008.3 0.4
09/07:00am 19.2 19.9 16.2 83 1.8 WSW 7 9 4 5 1008.0 1007.9 0.4
09/06:30am 17.3 18.1 15.8 91 0.9 SW 6 9 3 5 1007.8 1007.7 0.4
09/06:00am 17.3 18.7 15.5 89 1.1 SSW 2 6 1 3 1007.4 1007.3 0.4
09/05:30am 18.0 19.8 15.6 86 1.4 CALM 0 6 0 3 1007.4 1007.3 0.4
09/05:00am 18.4 18.2 15.8 85 1.5 SW 11 15 6 8 1007.1 1007.0 0.4
09/04:30am 17.7 18.9 15.9 89 1.1 SW 4 13 2 7 1007.2 1007.1 0.4
09/04:00am 18.6 19.4 15.8 84 1.7 SW 6 9 3 5 1007.2 1007.1 0.4
09/03:30am 18.9 19.0 15.4 80 2.1 SW 9 13 5 7 1007.1 1007.0 0.4
09/03:00am 19.7 18.8 15.8 78 2.3 SSW 15 20 8 11 1006.8 1006.7 0.4
09/02:30am 20.1 18.8 15.9 77 2.5 SSW 17 26 9 14 1006.8 1006.7 0.4
09/02:00am 20.1 19.0 16.3 79 2.3 SSW 17 24 9 13 1006.9 1006.8 0.4
09/01:30am 19.9 19.2 16.5 81 2.0 SSW 15 20 8 11 1007.2 1007.1 0.4
09/01:00am 19.7 20.1 16.3 81 2.0 SW 9 15 5 8 1007.4 1007.3 0.4
09/12:30am 20.1 20.1 16.3 79 2.3 SSW 11 15 6 8 1007.7 1007.6 0.4
09/12:00am 20.7 19.6 16.3 76 2.7 SW 17 24 9 13 1008.0 1007.9 0.4
 
Date/Time
EST
Temp
°C
App
Temp
°C
Dew
Point
°C
Rel
Hum
%
Delta-T
°C
Wind Press
QNH
hPa
Press
MSL
hPa
Rain since
9am
mm
Dir  Spd
km/h
Gust
km/h
Spd
kts
Gust
kts
08/11:30pm 20.7 19.3 16.5 77 2.5 SW 19 24 10 13 1008.4 1008.3 0.4
08/11:00pm 20.8 19.5 16.8 78 2.4 SSW 19 30 10 16 1008.4 1008.3 0.4
08/10:30pm 20.7 20.2 16.9 79 2.3 SSW 15 24 8 13 1008.8 1008.7 0.4
08/10:00pm 20.8 20.0 17.0 79 2.3 SSW 17 20 9 11 1008.8 1008.7 0.4
08/09:30pm 20.7 20.6 16.9 79 2.3 SSW 13 19 7 10 1008.9 1008.8 0.4
08/09:00pm 20.9 19.9 16.7 77 2.6 SW 17 22 9 12 1008.9 1008.8 0.4
08/08:30pm 21.2 20.7 16.8 76 2.7 SSW 15 22 8 12 1008.7 1008.6 0.4
08/08:00pm 21.0 21.1 17.4 80 2.2 SSW 13 20 7 11 1008.5 1008.4 0.4
08/07:30pm 20.5 21.5 17.7 84 1.7 SSW 9 17 5 9 1008.3 1008.2 0.4
08/07:00pm 20.1 21.7 18.2 89 1.2 S 7 11 4 6 1007.5 1007.4 0.4
08/06:30pm 20.3 21.1 18.2 88 1.3 S 11 13 6 7 1007.3 1007.2 0.4
08/06:00pm 20.9 22.0 17.9 83 1.9 S 9 13 5 7 1007.1 1007.0 0.4
08/05:30pm 21.7 22.0 17.9 79 2.4 SSW 13 17 7 9 1007.2 1007.1 0.4
08/05:00pm 22.5 21.5 17.6 74 3.0 S 19 28 10 15 1006.8 1006.7 0.4

Latest Capital City Observations: Canberra | Sydney | Melbourne | Brisbane | Adelaide | Perth | Hobart | Darwin

Other formats

Comma delimited format used in spreadsheet applications
http://www.bom.gov.au/fwo/IDQ60901/IDQ60901.94592.axf

JavaScript Object Notation format (JSON) in row-major order
http://www.bom.gov.au/fwo/IDQ60901/IDQ60901.94592.json

Data quality

Most of these data are generated automatically and are frequently updated. Quality checks on data are not normally performed. It is possible for incorrect values to appear. Refer to information at About Latest Weather Observations and please check the disclaimer before using these data.